Time;durP1;ratioP1;P1;durP2;ratioP2;P2;SDS_P1;SDS_P2;PMS_P1;PMS_P2;Temp;Humidity;BMP_temperature;BMP_pressure;BME280_temperature;BME280_humidity;BME280_pressure;Samples;Min_cycle;Max_cycle;Signal;HPM_P1;HPM_P2
2023/02/23 00:00:35;;;;;;;8.97;6.87;;;;;;;8.74;95.54;100037.88;5054600;28;20198;-79
2023/02/23 00:03:03;;;;;;;8.97;8.13;;;;;;;8.66;95.69;100046.69;5056448;28;20201;-79
2023/02/23 00:05:35;;;;;;;8.63;7.83;;;;;;;8.74;95.57;100043.09;5057350;28;20262;-80
2023/02/23 00:08:01;;;;;;;8.03;7.17;;;;;;;8.80;95.53;100052.53;5054789;28;20198;-80
2023/02/23 00:10:30;;;;;;;9.27;8.43;;;;;;;8.80;95.23;100049.94;5056545;28;20641;-80
2023/02/23 00:12:57;;;;;;;9.43;8.53;;;;;;;8.85;94.79;100060.25;5057141;28;20207;-80
2023/02/23 00:15:25;;;;;;;11.53;10.33;;;;;;;8.79;94.89;100084.63;5056652;28;20297;-79
2023/02/23 00:17:52;;;;;;;13.43;12.23;;;;;;;8.84;94.91;100068.91;5056436;28;20673;-80
2023/02/23 00:20:24;;;;;;;10.83;9.93;;;;;;;8.87;94.82;100069.72;5054078;28;20194;-79
2023/02/23 00:22:53;;;;;;;10.30;9.50;;;;;;;8.89;94.58;100067.09;5056808;28;20281;-79
2023/02/23 00:25:20;;;;;;;11.80;10.80;;;;;;;8.83;94.75;100073.28;5054286;28;20619;-79
2023/02/23 00:27:47;;;;;;;11.50;10.60;;;;;;;8.85;94.71;100068.06;5056485;28;20206;-80
2023/02/23 00:30:15;;;;;;;10.77;9.87;;;;;;;8.82;94.87;100079.38;5055953;28;20232;-80
2023/02/23 00:32:42;;;;;;;11.97;10.93;;;;;;;8.79;94.90;100073.38;5056517;28;20207;-79
2023/02/23 00:35:15;;;;;;;12.73;11.73;;;;;;;8.83;95.14;100068.06;5056126;28;20233;-79
2023/02/23 00:37:44;;;;;;;14.33;13.03;;;;;;;8.93;94.74;100076.56;5054079;28;20220;-79
2023/02/23 00:40:14;;;;;;;13.47;12.17;;;;;;;8.92;94.16;100087.88;5056035;28;20223;-80
2023/02/23 00:42:41;;;;;;;12.97;11.97;;;;;;;8.94;93.80;100092.19;5053916;28;20214;-80
2023/02/23 00:45:11;;;;;;;13.53;12.13;;;;;;;8.95;nan;100106.03;5056366;28;20198;-79
2023/02/23 00:47:37;;;;;;;13.03;11.93;;;;;;;8.91;93.52;100101.78;5055972;28;20577;-79
2023/02/23 00:50:05;;;;;;;13.70;12.40;;;;;;;8.94;93.37;100107.78;5055849;28;20630;-79
2023/02/23 00:52:31;;;;;;;13.13;11.97;;;;;;;9.01;92.97;100115.50;5055980;28;20225;-80
2023/02/23 00:54:59;;;;;;;12.53;11.53;;;;;;;9.01;92.77;100128.50;5055016;28;20202;-80
2023/02/23 00:57:25;;;;;;;14.00;12.90;;;;;;;8.85;93.25;100136.56;5056039;28;20210;-80
2023/02/23 00:59:52;;;;;;;13.47;12.27;;;;;;;8.98;93.32;100131.16;5055657;28;20295;-79
2023/02/23 01:02:18;;;;;;;11.80;10.67;;;;;;;9.05;93.16;100140.59;5056657;28;20213;-80
2023/02/23 01:04:44;;;;;;;12.50;11.40;;;;;;;9.04;92.44;100147.53;5055731;28;20205;-80
2023/02/23 01:07:11;;;;;;;11.63;10.57;;;;;;;9.01;92.37;100157.16;5055811;28;20208;-79
2023/02/23 01:09:38;;;;;;;11.57;10.67;;;;;;;8.99;92.51;100157.16;5055798;28;20234;-79
2023/02/23 01:12:06;;;;;;;11.60;10.60;;;;;;;8.97;92.34;100156.34;5056416;28;20251;-79
2023/02/23 01:14:34;;;;;;;12.10;11.10;;;;;;;8.93;92.58;100157.28;5056129;28;20205;-80
2023/02/23 01:17:00;;;;;;;11.97;10.93;;;;;;;8.94;92.89;100161.59;5055498;28;20276;-80
2023/02/23 01:19:27;;;;;;;12.17;11.00;;;;;;;8.93;93.09;100146.84;5055527;28;20306;-80
2023/02/23 01:21:53;;;;;;;12.30;11.00;;;;;;;8.94;93.24;100144.22;5055008;28;20212;-80
2023/02/23 01:24:20;;;;;;;11.47;10.43;;;;;;;8.78;93.91;100136.69;5055582;28;20212;-80
2023/02/23 01:26:46;;;;;;;12.83;11.73;;;;;;;8.72;94.34;100122.91;5055698;28;20656;-80
2023/02/23 01:29:16;;;;;;;12.10;10.90;;;;;;;8.69;94.69;100104.75;5055277;28;20225;-80
2023/02/23 01:31:45;;;;;;;13.10;11.70;;;;;;;8.64;95.08;100093.56;5054429;28;20237;-80
2023/02/23 01:34:14;;;;;;;12.50;11.23;;;;;;;8.63;95.37;100085.78;5055225;28;20205;-79
2023/02/23 01:36:42;;;;;;;14.10;12.80;;;;;;;8.57;95.91;100084.13;5055251;28;20209;-79
2023/02/23 01:39:11;;;;;;;13.73;12.43;;;;;;;8.55;96.14;100065.09;5055342;28;20275;-80
2023/02/23 01:41:41;;;;;;;17.00;15.50;;;;;;;8.55;96.55;100057.28;5055717;28;20251;-80
2023/02/23 01:44:28;;;;;;;16.60;15.10;;;;;;;8.65;96.46;100056.25;5055239;28;20260;-80
2023/02/23 01:46:57;;;;;;;15.13;13.57;;;;;;;8.73;96.25;100056.97;5055409;28;20259;-79
2023/02/23 01:49:26;;;;;;;15.10;13.80;;;;;;;8.75;95.93;100069.94;5055342;28;20233;-79
2023/02/23 01:51:55;;;;;;;15.07;13.57;;;;;;;8.79;95.91;100074.22;5055197;28;20229;-80
2023/02/23 01:54:27;;;;;;;16.33;14.83;;;;;;;8.82;95.57;100083.72;5055136;28;20235;-80
2023/02/23 01:56:57;;;;;;;13.63;12.40;;;;;;;8.81;95.25;100087.22;5054712;28;20675;-79
2023/02/23 01:59:27;;;;;;;15.53;14.13;;;;;;;8.79;95.13;100094.19;5054519;28;20235;-80
2023/02/23 02:01:56;;;;;;;15.13;13.83;;;;;;;8.80;95.02;100091.56;5054992;28;20201;-80
2023/02/23 02:04:24;;;;;;;15.90;14.40;;;;;;;8.79;95.04;100094.19;5054980;28;20209;-80
2023/02/23 02:06:54;;;;;;;13.90;12.60;;;;;;;8.75;94.93;100101.19;5054880;28;20292;-80
2023/02/23 02:09:26;;;;;;;15.50;14.20;;;;;;;8.73;95.02;100098.59;5054862;28;20247;-80
2023/02/23 02:11:53;;;;;;;15.13;13.83;;;;;;;8.74;94.74;100102.94;5055158;28;20252;-79
2023/02/23 02:14:23;;;;;;;14.73;13.53;;;;;;;8.71;94.83;100102.13;5054739;28;20209;-80
2023/02/23 02:17:24;;;;;;;15.70;14.40;;;;;;;8.70;94.86;100111.69;5055294;28;20205;-80
2023/02/23 02:20:13;;;;;;;16.97;15.07;;;;;;;8.65;94.68;100112.63;5046833;28;20229;-80
2023/02/23 02:23:26;;;;;;;17.60;16.00;;;;;;;8.58;95.21;100113.59;5054898;28;20217;-80
2023/02/23 02:26:02;;;;;;;17.60;16.07;;;;;;;8.55;95.64;100104.13;5053570;28;20252;-80
2023/02/23 02:29:13;;;;;;;16.53;15.13;;;;;;;8.58;96.01;100091.03;5055619;28;20320;-81
2023/02/23 02:32:00;;;;;;;18.40;16.70;;;;;;;8.51;96.00;100086.84;5055153;28;20656;-80
2023/02/23 02:35:17;;;;;;;20.03;18.13;;;;;;;8.43;96.40;100076.56;5055196;28;20241;-80
2023/02/23 02:37:56;;;;;;;22.60;20.67;;;;;;;8.48;96.82;100066.94;5054656;28;20618;-80
2023/02/23 02:40:31;;;;;;;25.63;22.43;;;;;;;8.62;96.49;100077.13;5055377;28;20205;-80
2023/02/23 02:43:10;;;;;;;24.00;21.47;;;;;;;8.74;96.11;100084.72;5057965;28;20201;-80
2023/02/23 02:45:43;;;;;;;23.17;20.80;;;;;;;8.84;95.43;100095.84;5059215;28;20690;-81
2023/02/23 02:48:17;;;;;;;22.80;20.40;;;;;;;8.89;94.80;100112.22;5058826;28;20259;-80
2023/02/23 02:50:49;;;;;;;21.17;19.27;;;;;;;8.91;94.00;100131.25;5058691;28;20757;-80
2023/02/23 02:53:22;;;;;;;21.90;19.87;;;;;;;8.72;93.76;100145.47;5058419;28;20206;-79
2023/02/23 02:55:51;;;;;;;25.53;20.33;;;;;;;8.63;94.61;100138.66;5058470;28;20289;-80
2023/02/23 02:58:18;;;;;;;21.73;19.57;;;;;;;8.47;94.93;100130.25;5058541;28;20225;-80
2023/02/23 04:19:13;;;;;;;25.00;21.90;;;;;;;8.24;97.54;100083.75;5057001;28;20225;-81
2023/02/23 04:21:39;;;;;;;23.33;20.90;;;;;;;8.26;96.91;100094.13;5057588;28;20217;-81
2023/02/23 04:24:05;;;;;;;34.47;23.40;;;;;;;8.33;96.96;100108.75;5056731;28;20228;-79
2023/02/23 04:26:32;;;;;;;28.17;25.27;;;;;;;8.35;96.51;100115.66;5056448;28;20238;-80
2023/02/23 04:28:58;;;;;;;30.20;25.67;;;;;;;8.18;98.19;100099.44;5056876;28;20233;-80
2023/02/23 04:31:24;;;;;;;31.10;23.67;;;;;;;8.15;98.56;100081.31;5056247;28;20286;-80
2023/02/23 04:33:52;;;;;;;30.23;25.60;;;;;;;8.14;98.21;100085.63;5056519;28;20209;-79
2023/02/23 04:36:18;;;;;;;27.60;24.30;;;;;;;8.20;98.28;100082.06;5056125;28;20903;-79
2023/02/23 04:38:45;;;;;;;29.93;23.73;;;;;;;8.25;97.48;100090.66;5056777;28;20298;-80
2023/02/23 04:41:11;;;;;;;29.07;25.47;;;;;;;8.25;97.06;100101.06;5056130;28;20718;-79
2023/02/23 04:43:37;;;;;;;27.30;24.47;;;;;;;8.31;97.38;100100.13;5056485;28;20209;-81
2023/02/23 04:46:04;;;;;;;33.07;26.27;;;;;;;8.36;97.04;100116.50;5056265;28;20680;-80
2023/02/23 04:48:30;;;;;;;30.77;27.10;;;;;;;8.39;96.42;100115.63;5056291;28;20247;-80
2023/02/23 04:50:59;;;;;;;30.47;26.23;;;;;;;8.40;96.36;100128.56;5056645;28;20293;-80
2023/02/23 04:53:26;;;;;;;29.10;23.63;;;;;;;8.37;96.27;100131.25;5056054;28;20205;-81
2023/02/23 04:55:52;;;;;;;29.03;23.87;;;;;;;8.38;96.03;100135.53;5056092;28;20681;-80
2023/02/23 04:58:18;;;;;;;27.83;24.73;;;;;;;8.33;96.22;100139.97;5056237;28;20225;-80
2023/02/23 05:00:45;;;;;;;37.27;28.43;;;;;;;8.27;96.79;100133.13;5056333;28;20235;-80
2023/02/23 05:03:11;;;;;;;32.87;26.70;;;;;;;8.15;97.28;100128.94;5055481;28;20210;-80
2023/02/23 05:05:38;;;;;;;29.13;25.07;;;;;;;8.12;97.02;100123.78;5054902;28;20304;-81
2023/02/23 05:08:06;;;;;;;39.43;28.80;;;;;;;7.99;97.80;100122.25;5056124;28;20258;-80
2023/02/23 05:10:32;;;;;;;44.47;31.23;;;;;;;7.84;100.00;100073.06;5055957;28;20261;-79
2023/02/23 05:13:00;;;;;;;38.93;31.17;;;;;;;7.75;100.00;100041.16;5055679;28;20587;-81
2023/02/23 05:15:26;;;;;;;30.07;26.87;;;;;;;7.87;100.00;100034.91;5055676;28;20231;-79
2023/02/23 05:17:53;;;;;;;39.03;30.60;;;;;;;7.84;100.00;100032.34;5055126;28;20365;-79
2023/02/23 05:20:20;;;;;;;33.07;26.53;;;;;;;7.94;100.00;100041.72;5055779;28;20671;-81
2023/02/23 05:22:46;;;;;;;33.47;26.87;;;;;;;7.98;99.38;100049.50;5056311;28;20205;-81
2023/02/23 05:25:14;;;;;;;29.73;25.80;;;;;;;8.08;99.20;100066.66;5055336;28;20235;-81
2023/02/23 05:27:40;;;;;;;42.03;31.60;;;;;;;8.06;99.25;100068.44;5055549;28;20266;-81
2023/02/23 05:30:08;;;;;;;39.87;31.53;;;;;;;7.86;100.00;100059.16;5054984;28;20229;-80
2023/02/23 05:32:35;;;;;;;45.80;32.07;;;;;;;7.72;100.00;100030.78;5055630;28;20730;-80
2023/02/23 05:35:01;;;;;;;43.27;31.70;;;;;;;7.76;100.00;100019.47;5055388;28;20254;-81
2023/02/23 05:37:27;;;;;;;42.27;33.37;;;;;;;7.68;100.00;100010.91;5055552;28;20212;-80
2023/02/23 05:39:54;;;;;;;42.73;31.30;;;;;;;7.61;100.00;99996.31;5055584;28;20233;-81
2023/02/23 05:42:21;;;;;;;43.57;32.80;;;;;;;7.59;100.00;99979.03;5055094;28;20642;-81
2023/02/23 05:44:48;;;;;;;40.33;32.43;;;;;;;7.68;100.00;99973.72;5054960;28;20206;-80
2023/02/23 05:47:14;;;;;;;39.27;30.30;;;;;;;7.73;100.00;99982.28;5055561;28;20209;-80
2023/02/23 05:49:41;;;;;;;41.83;31.97;;;;;;;7.73;100.00;99990.06;5054772;28;20225;-80
2023/02/23 05:52:08;;;;;;;46.67;34.10;;;;;;;7.60;100.00;99985.94;5055152;28;20252;-81
2023/02/23 05:54:34;;;;;;;45.87;32.33;;;;;;;7.69;100.00;99985.78;5055028;28;20208;-80
2023/02/23 05:57:00;;;;;;;43.70;32.03;;;;;;;7.68;100.00;99984.09;5054761;28;20201;-80
2023/02/23 05:59:28;;;;;;;43.27;32.97;;;;;;;7.73;100.00;99982.28;5054748;28;20278;-80
2023/02/23 06:01:54;;;;;;;55.07;36.37;;;;;;;7.73;100.00;99983.16;5055007;28;20205;-81
2023/02/23 06:04:22;;;;;;;51.80;35.17;;;;;;;7.87;100.00;99982.06;5054444;28;20210;-80
2023/02/23 06:06:48;;;;;;;55.83;37.03;;;;;;;7.84;100.00;99984.72;5055326;28;20672;-80
2023/02/23 06:09:14;;;;;;;54.80;38.03;;;;;;;7.66;100.00;99980.66;5054834;28;20796;-80
2023/02/23 06:11:41;;;;;;;54.97;37.27;;;;;;;7.63;100.00;99963.41;5054821;28;20225;-81
2023/02/23 06:14:07;;;;;;;58.80;37.53;;;;;;;7.61;100.00;99969.47;5054271;28;20251;-80
2023/02/23 06:16:35;;;;;;;49.50;36.00;;;;;;;7.65;100.00;99973.72;5054647;28;20275;-79
2023/02/23 06:19:01;;;;;;;47.47;32.80;;;;;;;7.70;100.00;99977.13;5054855;28;20781;-80
2023/02/23 06:21:28;;;;;;;50.63;35.80;;;;;;;7.73;100.00;99990.06;5054716;28;20236;-80
2023/02/23 06:23:54;;;;;;;53.80;35.87;;;;;;;7.82;100.00;99987.34;5054512;28;20221;-81
2023/02/23 06:26:20;;;;;;;47.90;33.57;;;;;;;7.88;100.00;99997.63;5054589;28;20212;-80
2023/02/23 06:28:47;;;;;;;44.87;32.60;;;;;;;7.96;100.00;100011.38;5054081;28;20298;-80
2023/02/23 06:31:13;;;;;;;47.93;36.13;;;;;;;7.93;100.00;100029.63;5054119;28;20286;-80
2023/02/23 06:33:40;;;;;;;54.87;38.93;;;;;;;7.80;100.00;100014.22;5054460;28;20229;-80
2023/02/23 06:36:09;;;;;;;67.53;41.93;;;;;;;7.75;100.00;100001.31;5054881;28;20205;-80
2023/02/23 06:38:35;;;;;;;67.20;42.50;;;;;;;7.64;100.00;99987.63;5054802;28;20723;-80
2023/02/23 06:41:06;;;;;;;71.73;45.60;;;;;;;7.54;100.00;99973.91;5054791;28;20584;-81
2023/02/23 06:43:33;;;;;;;72.07;46.00;;;;;;;7.51;100.00;99961.81;5054364;28;20204;-81
2023/02/23 06:45:59;;;;;;;67.50;43.73;;;;;;;7.53;100.00;99954.00;5054791;28;20209;-80
2023/02/23 06:48:26;;;;;;;70.70;43.57;;;;;;;7.59;100.00;99959.13;5054842;28;20226;-80
2023/02/23 06:50:53;;;;;;;73.70;44.77;;;;;;;7.70;100.00;99966.75;5054463;28;20763;-80
2023/02/23 06:53:20;;;;;;;67.07;42.90;;;;;;;7.69;100.00;99986.69;5054157;28;20188;-80
2023/02/23 06:55:47;;;;;;;73.07;44.67;;;;;;;7.68;100.00;99978.91;5053971;28;20212;-80
2023/02/23 06:58:13;;;;;;;81.97;46.80;;;;;;;7.68;100.00;99990.13;5054923;28;20773;-80
2023/02/23 07:00:41;;;;;;;71.97;47.80;;;;;;;7.76;100.00;100000.44;5054073;28;20243;-80
2023/02/23 07:03:08;;;;;;;76.10;46.27;;;;;;;7.72;100.00;100003.94;5054215;28;20212;-80
2023/02/23 07:05:35;;;;;;;75.77;47.60;;;;;;;7.63;100.00;99996.28;5054175;28;20745;-81
2023/02/23 07:08:02;;;;;;;76.93;48.60;;;;;;;7.69;100.00;100001.38;5054190;28;20210;-81
2023/02/23 07:10:29;;;;;;;81.07;48.70;;;;;;;7.81;100.00;99992.56;5054163;28;20576;-80
2023/02/23 07:12:56;;;;;;;79.90;48.60;;;;;;;7.90;100.00;100006.28;5054288;28;20233;-79
2023/02/23 07:15:22;;;;;;;81.70;47.87;;;;;;;7.99;100.00;100017.41;5054492;28;20216;-79
2023/02/23 07:17:50;;;;;;;58.83;40.23;;;;;;;8.10;100.00;100026.75;5053441;28;20209;-80
2023/02/23 07:20:16;;;;;;;58.77;38.23;;;;;;;8.25;100.00;100035.22;5051491;28;20584;-80
2023/02/23 07:22:43;;;;;;;64.27;40.50;;;;;;;8.34;100.00;100051.53;5052316;28;20205;-79
2023/02/23 07:25:11;;;;;;;67.83;43.93;;;;;;;8.33;100.00;100067.16;5052761;28;20201;-80
2023/02/23 07:27:38;;;;;;;72.93;44.57;;;;;;;8.11;100.00;100083.06;5052138;28;20749;-80
2023/02/23 07:30:05;;;;;;;76.73;46.60;;;;;;;8.01;100.00;100070.22;5055608;28;20882;-80
2023/02/23 07:32:31;;;;;;;74.10;45.97;;;;;;;8.13;100.00;100062.25;5055750;28;20700;-80
2023/02/23 07:34:58;;;;;;;80.60;46.90;;;;;;;7.96;100.00;100060.75;5056031;28;20198;-80
2023/02/23 07:37:24;;;;;;;77.33;47.70;;;;;;;7.84;100.00;100042.75;5055928;28;20580;-81
2023/02/23 07:39:50;;;;;;;76.30;47.27;;;;;;;7.97;100.00;100030.44;5056134;28;20605;-80
2023/02/23 07:42:18;;;;;;;79.63;48.33;;;;;;;8.04;100.00;100039.00;5056711;28;20201;-80
2023/02/23 07:44:44;;;;;;;82.17;48.90;;;;;;;8.05;100.00;100036.38;5054322;28;20198;-80
2023/02/23 07:47:11;;;;;;;76.63;47.20;;;;;;;8.14;100.00;100038.81;5056393;28;20197;-80
2023/02/23 07:49:37;;;;;;;79.37;48.93;;;;;;;8.16;100.00;100044.00;5056298;28;20232;-81
2023/02/23 07:52:04;;;;;;;73.90;45.10;;;;;;;8.35;100.00;100041.97;5055791;28;20720;-79
2023/02/23 07:54:30;;;;;;;82.73;47.83;;;;;;;8.30;100.00;100049.84;5056019;28;20202;-79
2023/02/23 07:56:58;;;;;;;71.07;46.43;;;;;;;8.47;100.00;100053.97;5055899;28;20256;-80
2023/02/23 07:59:25;;;;;;;75.67;48.80;;;;;;;8.58;100.00;100064.19;5053896;28;20225;-79
2023/02/23 08:01:52;;;;;;;85.07;53.53;;;;;;;8.60;100.00;100083.22;5056385;28;20251;-80
2023/02/23 08:04:18;;;;;;;68.73;46.83;;;;;;;8.50;100.00;100096.41;5055513;28;20206;-79
2023/02/23 08:06:44;;;;;;;74.40;47.57;;;;;;;8.44;100.00;100100.81;5053295;28;20201;-80
2023/02/23 08:09:11;;;;;;;75.90;49.20;;;;;;;8.47;100.00;100100.78;5055788;28;20278;-79
2023/02/23 08:11:38;;;;;;;80.20;49.17;;;;;;;8.51;100.00;100107.66;5056167;28;20684;-80
2023/02/23 08:14:04;;;;;;;77.40;48.13;;;;;;;8.20;100.00;100100.28;5052830;28;20193;-80
2023/02/23 08:16:33;;;;;;;84.33;51.33;;;;;;;8.14;100.00;100066.56;5055909;28;20206;-80
2023/02/23 08:19:00;;;;;;;85.43;49.47;;;;;;;8.22;100.00;100056.06;5055502;28;20314;-79
2023/02/23 08:21:28;;;;;;;68.00;46.37;;;;;;;8.45;100.00;100056.59;5052990;28;20273;-79
2023/02/23 08:23:54;;;;;;;79.13;48.60;;;;;;;8.62;100.00;100069.31;5055441;28;20206;-79
2023/02/23 08:26:22;;;;;;;74.17;48.07;;;;;;;8.66;100.00;100086.59;5055227;28;20204;-80
2023/02/23 08:28:49;;;;;;;77.17;46.00;;;;;;;8.48;100.00;100098.16;5055535;28;20589;-80
2023/02/23 08:31:17;;;;;;;81.10;48.10;;;;;;;8.31;100.00;100095.78;5055288;28;20227;-81
2023/02/23 08:33:45;;;;;;;77.57;47.97;;;;;;;8.23;100.00;100079.44;5055151;28;20797;-80
2023/02/23 08:36:11;;;;;;;84.37;49.50;;;;;;;8.31;100.00;100068.91;5055697;28;20204;-80
2023/02/23 08:38:38;;;;;;;80.77;50.30;;;;;;;8.48;100.00;100069.56;5055373;28;20281;-79
2023/02/23 08:41:05;;;;;;;80.27;48.23;;;;;;;8.49;100.00;100075.59;5055032;28;20692;-80
2023/02/23 08:43:32;;;;;;;78.03;48.50;;;;;;;8.63;100.00;100084.03;5055357;28;20200;-79
2023/02/23 08:45:58;;;;;;;83.33;49.97;;;;;;;8.49;100.00;100084.25;5054952;28;20227;-80
2023/02/23 08:48:25;;;;;;;82.17;50.93;;;;;;;8.45;100.00;100086.94;5054828;28;20284;-80
2023/02/23 08:50:56;;;;;;;80.27;50.87;;;;;;;8.49;100.00;100071.25;5055155;28;20201;-80
2023/02/23 08:53:24;;;;;;;84.17;50.07;;;;;;;8.60;100.00;100073.66;5055747;28;20217;-81
2023/02/23 08:55:55;;;;;;;82.00;51.13;;;;;;;8.54;100.00;100065.97;5055292;28;20246;-80
2023/02/23 08:58:22;;;;;;;83.23;51.43;;;;;;;8.69;100.00;100070.91;5055389;28;20263;-80
2023/02/23 09:00:48;;;;;;;84.87;52.13;;;;;;;8.71;100.00;100073.50;5054708;28;20230;-80
2023/02/23 09:03:14;;;;;;;93.77;52.13;;;;;;;8.67;100.00;100088.28;5055049;28;20200;-81
2023/02/23 09:05:42;;;;;;;86.63;51.17;;;;;;;8.65;100.00;100079.66;5055392;28;20255;-80
2023/02/23 09:08:11;;;;;;;85.73;51.37;;;;;;;8.70;100.00;100075.25;5055594;28;20280;-80
2023/02/23 09:10:37;;;;;;;82.73;51.50;;;;;;;8.74;100.00;100089.91;5055781;28;20587;-81
2023/02/23 09:13:03;;;;;;;83.43;50.77;;;;;;;8.71;100.00;100084.75;5054373;28;20555;-80
2023/02/23 09:15:30;;;;;;;87.37;51.63;;;;;;;8.84;100.00;100089.75;5055764;28;20261;-80
2023/02/23 09:17:59;;;;;;;84.03;52.10;;;;;;;8.87;100.00;100100.13;5055087;28;20197;-80
2023/02/23 09:20:26;;;;;;;80.73;48.40;;;;;;;8.82;100.00;100094.13;5052724;28;20209;-79
2023/02/23 09:22:52;;;;;;;81.43;51.33;;;;;;;8.73;100.00;100096.00;5054702;28;20251;-79
2023/02/23 09:25:21;;;;;;;81.63;50.87;;;;;;;8.78;100.00;100093.34;5053955;28;20213;-79
2023/02/23 09:27:48;;;;;;;88.80;51.87;;;;;;;8.72;100.00;100096.00;5051898;28;20208;-79
2023/02/23 09:30:16;;;;;;;86.87;52.53;;;;;;;8.87;100.00;100087.09;5055091;28;20268;-80
2023/02/23 09:32:44;;;;;;;83.60;50.30;;;;;;;8.93;100.00;100098.25;5054324;28;20237;-79
2023/02/23 09:35:10;;;;;;;76.73;49.10;;;;;;;8.81;100.00;100101.06;5054079;28;20636;-79
2023/02/23 09:37:36;;;;;;;83.80;50.07;;;;;;;8.78;100.00;100097.66;5054690;28;20205;-80
2023/02/23 09:40:03;;;;;;;80.27;50.17;;;;;;;8.75;100.00;100096.81;5053597;28;20283;-79
2023/02/23 09:42:47;;;;;;;80.97;51.13;;;;;;;8.65;100.00;100091.81;5054159;28;20232;-80
2023/02/23 09:45:23;;;;;;;82.47;50.17;;;;;;;8.78;100.00;100082.03;5053020;28;20862;-80
2023/02/23 09:48:01;;;;;;;85.10;50.50;;;;;;;8.73;100.00;100087.34;5052813;28;20200;-80
2023/02/23 09:50:29;;;;;;;81.83;49.77;;;;;;;8.75;100.00;100090.78;5052079;28;20614;-80
2023/02/23 09:53:00;;;;;;;83.77;51.77;;;;;;;8.64;100.00;100097.91;5054309;28;20221;-79
2023/02/23 09:55:27;;;;;;;90.53;53.63;;;;;;;8.61;100.00;100084.94;5052066;28;20826;-80
2023/02/23 09:57:57;;;;;;;88.73;51.83;;;;;;;8.75;100.00;100086.41;5054527;28;20199;-79
2023/02/23 10:00:26;;;;;;;89.13;53.57;;;;;;;8.75;100.00;100090.78;5054151;28;20224;-79
2023/02/23 10:03:03;;;;;;;89.43;55.22;;;;;;;8.90;100.00;100095.72;5053877;28;20435;-80
2023/02/23 10:05:33;;;;;;;78.93;50.53;;;;;;;8.98;100.00;100102.50;5051357;28;20214;-80
2023/02/23 10:08:06;;;;;;;84.80;51.57;;;;;;;9.07;100.00;100117.97;5054254;28;20202;-79
2023/02/23 10:10:40;;;;;;;82.30;49.37;;;;;;;9.09;100.00;100127.47;5052500;28;20224;-79
2023/02/23 10:13:21;;;;;;;80.13;49.70;;;;;;;9.10;100.00;100136.16;5050952;28;20217;-79
2023/02/23 10:15:52;;;;;;;73.30;46.07;;;;;;;9.18;100.00;100149.91;5051863;28;20260;-79
2023/02/23 10:18:31;;;;;;;73.70;47.27;;;;;;;9.21;100.00;100165.47;5054325;28;20217;-79
2023/02/23 10:21:03;;;;;;;72.77;47.60;;;;;;;9.23;100.00;100179.31;5053632;28;20287;-79
2023/02/23 10:23:32;;;;;;;68.10;44.53;;;;;;;9.30;100.00;100187.91;5051789;28;20319;-79
2023/02/23 10:26:02;;;;;;;71.90;46.13;;;;;;;9.28;100.00;100185.31;5052046;28;20251;-79
2023/02/23 10:28:34;;;;;;;77.50;46.60;;;;;;;9.33;100.00;100190.44;5050907;28;20793;-79
2023/02/23 10:31:01;;;;;;;69.63;44.43;;;;;;;9.37;100.00;100196.44;5054486;28;20201;-78
2023/02/23 10:33:34;;;;;;;69.07;44.80;;;;;;;9.34;100.00;100199.97;5053883;28;20702;-79
2023/02/23 10:36:12;;;;;;;75.63;46.43;;;;;;;9.29;100.00;100210.44;5054282;28;20603;-81
2023/02/23 10:38:39;;;;;;;72.33;45.70;;;;;;;9.15;100.00;100210.69;5053953;28;20599;-79
2023/02/23 10:41:06;;;;;;;72.30;44.87;;;;;;;9.23;100.00;100204.50;5053641;28;20248;-78
2023/02/23 10:43:33;;;;;;;73.03;45.53;;;;;;;9.36;100.00;100186.94;5053668;28;20569;-80
2023/02/23 10:46:00;;;;;;;78.33;46.90;;;;;;;9.50;100.00;100159.72;5053285;28;20208;-80
2023/02/23 10:48:31;;;;;;;76.60;46.43;;;;;;;9.62;100.00;100126.50;5053614;28;20604;-80
2023/02/23 10:51:01;;;;;;;66.50;42.27;;;;;;;9.69;100.00;100115.94;5053111;28;20210;-79
2023/02/23 10:53:34;;;;;;;73.67;47.27;;;;;;;9.74;100.00;100110.59;5051167;28;20452;-80
2023/02/23 10:56:06;;;;;;;64.07;42.30;;;;;;;9.90;100.00;100106.78;5054056;28;20198;-80
2023/02/23 10:58:40;;;;;;;58.83;41.30;;;;;;;9.87;100.00;100108.59;5054015;28;20225;-80
2023/02/23 11:01:06;;;;;;;69.33;41.80;;;;;;;9.91;100.00;100118.94;5051948;28;20198;-80
2023/02/23 11:03:36;;;;;;;63.53;41.67;;;;;;;9.78;100.00;100146.16;5056389;28;20224;-80
2023/02/23 11:06:03;;;;;;;60.50;38.80;;;;;;;9.53;100.00;100177.91;5058502;28;20202;-80
2023/02/23 11:08:32;;;;;;;63.70;40.83;;;;;;;9.58;100.00;100182.19;5057554;28;20247;-79
2023/02/23 11:11:07;;;;;;;60.03;39.33;;;;;;;9.68;100.00;100183.72;5057859;28;20201;-80
2023/02/23 11:13:36;;;;;;;60.13;40.03;;;;;;;9.71;100.00;100173.22;5057783;28;20225;-80
2023/02/23 11:16:08;;;;;;;66.07;40.83;;;;;;;9.79;100.00;100171.34;5057454;28;20275;-80
2023/02/23 11:18:35;;;;;;;63.63;39.37;;;;;;;9.68;100.00;100183.72;5054327;28;20313;-81
2023/02/23 11:21:02;;;;;;;62.87;41.00;;;;;;;9.63;100.00;100185.53;5057682;28;20201;-80
2023/02/23 11:23:34;;;;;;;54.20;38.37;;;;;;;9.67;100.00;100195.00;5057291;28;20252;-79
2023/02/23 11:26:02;;;;;;;55.03;37.93;;;;;;;9.72;100.00;100198.41;5057592;28;20197;-80
2023/02/23 11:28:32;;;;;;;56.00;37.10;;;;;;;9.68;100.00;100204.56;5057431;28;20287;-81
2023/02/23 11:31:02;;;;;;;56.40;37.00;;;;;;;9.44;100.00;100205.88;5058016;28;20206;-79
2023/02/23 11:33:34;;;;;;;55.00;36.80;;;;;;;9.47;100.00;100205.81;5057076;28;20218;-80
2023/02/23 11:36:14;;;;;;;56.10;36.73;;;;;;;9.52;100.00;100180.53;5057021;28;20694;-80
2023/02/23 11:38:40;;;;;;;51.57;34.97;;;;;;;9.59;100.00;100166.50;5057097;28;20773;-79
2023/02/23 11:41:18;;;;;;;53.43;36.27;;;;;;;9.69;100.00;100168.06;5057238;28;20205;-80
2023/02/23 11:43:48;;;;;;;55.07;36.03;;;;;;;9.73;100.00;100172.31;5054671;28;20571;-80
2023/02/23 11:46:15;;;;;;;51.00;34.63;;;;;;;9.70;100.00;100174.97;5057183;28;20220;-81
2023/02/23 11:48:50;;;;;;;53.53;34.63;;;;;;;9.81;100.00;100172.16;5057293;28;20229;-79
2023/02/23 11:51:24;;;;;;;45.57;33.80;;;;;;;9.84;100.00;100189.47;5057452;28;20204;-79
2023/02/23 11:53:51;;;;;;;43.47;32.63;;;;;;;9.64;100.00;100200.31;5055101;28;20643;-79
2023/02/23 11:56:22;;;;;;;44.07;32.53;;;;;;;9.61;100.00;100198.59;5057291;28;20255;-80
2023/02/23 11:58:52;;;;;;;42.73;32.67;;;;;;;9.74;100.00;100187.03;5054694;28;20273;-80
2023/02/23 12:01:22;;;;;;;46.73;33.83;;;;;;;9.90;100.00;100177.16;5057871;28;20301;-79
2023/02/23 12:03:53;;;;;;;47.73;32.27;;;;;;;9.96;100.00;100178.78;5057150;28;20750;-80
2023/02/23 12:06:29;;;;;;;46.60;33.23;;;;;;;9.70;100.00;100187.16;5057056;28;20212;-80
2023/02/23 12:09:01;;;;;;;42.43;31.63;;;;;;;9.86;100.00;100198.13;5056964;28;20888;-79
2023/02/23 12:11:31;;;;;;;42.87;31.80;;;;;;;10.02;100.00;100180.44;5056183;28;20754;-80
2023/02/23 12:14:03;;;;;;;40.70;30.50;;;;;;;9.98;100.00;100197.03;5056686;28;20261;-81
2023/02/23 12:16:34;;;;;;;39.83;29.63;;;;;;;9.67;100.00;100221.97;5054783;28;20251;-80
2023/02/23 12:19:07;;;;;;;40.57;30.60;;;;;;;9.30;100.00;100219.16;5056487;28;20591;-80
2023/02/23 12:21:38;;;;;;;41.00;30.27;;;;;;;9.31;100.00;100184.38;5056563;28;20205;-80
2023/02/23 12:24:16;;;;;;;40.50;31.00;;;;;;;9.21;100.00;100167.22;5054080;28;20186;-81
2023/02/23 12:26:48;;;;;;;37.40;30.00;;;;;;;9.34;100.00;100158.28;5056437;28;20206;-80
2023/02/23 12:29:23;;;;;;;38.77;29.97;;;;;;;9.41;100.00;100152.06;5056503;28;20233;-79
2023/02/23 12:31:56;;;;;;;37.30;29.17;;;;;;;9.45;100.00;100153.72;5054068;28;20251;-79
2023/02/23 12:34:30;;;;;;;40.33;29.00;;;;;;;9.38;100.00;100148.69;5056345;28;20252;-80
2023/02/23 12:37:00;;;;;;;45.03;30.27;;;;;;;9.39;100.00;100153.00;5056973;28;20262;-80
2023/02/23 12:39:31;;;;;;;39.07;28.50;;;;;;;9.37;100.00;100147.81;5055328;28;20240;-80
2023/02/23 12:42:05;;;;;;;35.37;28.20;;;;;;;9.42;100.00;100147.75;5056396;28;20223;-79